Terminal Aerodrome Forecast
Issued by NWS Amarillo, TX

Home | Current Version | Previous Version | Text Only | Print | Product List | Glossary On
Versions: 1 2 3 4 5 6 7 8 9 10 11 12 13 14 15 16 17
692
FTUS44 KAMA 241156 AAA
TAFAMA
TAF AMD
KAMA 241156Z 2412/2512 16015KT P6SM BKN012
     FM241300 25015KT P6SM SCT010
     FM241600 28023G34KT P6SM SCT300
     FM242200 30013KT P6SM SKC
     FM250200 17009KT P6SM SKC
     FM250900 22011KT P6SM SKC=

USA.gov is the U.S. government's official web portal to all federal, state and local government web resources and services.